createdAt,value
2018-04-30T00:01:58.646Z,8.60
2018-04-30T00:05:01.966Z,11.00
2018-04-30T00:08:05.279Z,10.10
2018-04-30T00:11:09.382Z,9.00
2018-04-30T00:14:12.693Z,9.20
2018-04-30T00:17:16.760Z,9.77
2018-04-30T00:20:20.072Z,8.73
2018-04-30T00:23:23.400Z,9.43
2018-04-30T00:26:27.471Z,10.70
2018-04-30T00:29:30.780Z,8.93
2018-04-30T00:32:34.105Z,9.67
2018-04-30T00:35:38.164Z,7.10
2018-04-30T00:38:41.495Z,8.03
2018-04-30T00:41:44.796Z,6.83
2018-04-30T00:44:48.118Z,7.30
2018-04-30T00:47:52.185Z,7.20
2018-04-30T00:50:55.532Z,6.87
2018-04-30T00:53:59.589Z,7.00
2018-04-30T00:57:02.917Z,6.90
2018-04-30T01:00:06.222Z,7.27
2018-04-30T01:03:10.306Z,9.13
2018-04-30T01:06:13.607Z,7.90
2018-04-30T01:09:16.937Z,7.07
2018-04-30T01:12:21.000Z,6.37
2018-04-30T01:15:24.329Z,9.73
2018-04-30T01:18:27.625Z,7.30
2018-04-30T01:21:30.950Z,6.33
2018-04-30T01:24:34.250Z,8.23
2018-04-30T01:27:37.569Z,7.60
2018-04-30T01:30:40.880Z,7.57
2018-04-30T01:33:44.177Z,6.33
2018-04-30T01:36:47.508Z,6.60
2018-04-30T01:39:51.577Z,6.73
2018-04-30T01:42:54.887Z,5.90
2018-04-30T01:45:58.201Z,6.33
2018-04-30T01:49:01.507Z,5.80
2018-04-30T01:52:04.830Z,5.77
2018-04-30T01:55:08.129Z,6.63
2018-04-30T01:58:11.457Z,7.97
2018-04-30T02:01:14.757Z,6.53
2018-04-30T02:04:18.081Z,6.10
2018-04-30T02:07:21.382Z,8.93
2018-04-30T02:10:24.705Z,7.93
2018-04-30T02:13:28.001Z,8.43
2018-04-30T02:16:31.334Z,8.07
2018-04-30T02:19:34.629Z,7.60
2018-04-30T02:22:37.937Z,10.30
2018-04-30T02:25:41.253Z,6.80
2018-04-30T02:28:44.553Z,7.83
2018-04-30T02:31:47.874Z,6.73
2018-04-30T02:34:51.945Z,9.33
2018-04-30T02:37:55.275Z,7.80
2018-04-30T02:40:59.346Z,8.47
2018-04-30T02:44:02.652Z,6.80
2018-04-30T02:47:05.981Z,7.57
2018-04-30T02:50:10.049Z,6.20
2018-04-30T02:53:13.361Z,9.10
2018-04-30T02:56:16.661Z,7.77
2018-04-30T02:59:20.001Z,6.73
2018-04-30T03:02:24.064Z,10.70
2018-04-30T03:05:27.389Z,7.87
2018-04-30T03:08:30.691Z,7.97
2018-04-30T03:11:34.011Z,9.43
2018-04-30T03:14:37.312Z,8.07
2018-04-30T03:17:40.633Z,8.30
2018-04-30T03:20:43.930Z,8.00
2018-04-30T03:23:48.017Z,8.07
2018-04-30T03:26:51.346Z,9.23
2018-04-30T03:29:54.712Z,9.83
2018-04-30T03:32:58.087Z,10.20
2018-04-30T03:36:02.317Z,9.93
2018-04-30T03:39:06.394Z,10.87
2018-04-30T03:42:09.729Z,11.53
2018-04-30T03:45:13.801Z,12.57
2018-04-30T03:48:17.140Z,11.40
2018-04-30T03:51:21.216Z,14.33
2018-04-30T03:54:24.654Z,13.90
2018-04-30T03:57:27.965Z,16.70
2018-04-30T04:00:49.040Z,16.00
2018-04-30T04:04:09.961Z,16.47
2018-04-30T04:07:13.301Z,21.80
2018-04-30T04:10:16.605Z,16.43
2018-04-30T04:13:19.944Z,20.90
2018-04-30T04:16:23.253Z,16.43
2018-04-30T04:19:27.351Z,23.03
2018-04-30T04:22:30.662Z,18.80
2018-04-30T04:25:34.833Z,22.93
2018-04-30T04:28:38.222Z,21.40
2018-04-30T04:31:41.513Z,21.87
2018-04-30T04:34:44.828Z,24.03
2018-04-30T04:37:48.177Z,23.63
2018-04-30T04:40:52.265Z,26.27
2018-04-30T04:43:55.597Z,25.00
2018-04-30T04:46:58.905Z,29.43
2018-04-30T04:50:02.219Z,29.67
2018-04-30T04:53:05.522Z,29.10
2018-04-30T04:56:08.833Z,30.07
2018-04-30T04:59:12.139Z,26.57
2018-04-30T05:02:15.497Z,30.87
2018-04-30T05:05:19.536Z,28.57
2018-04-30T05:08:22.886Z,33.63
2018-04-30T05:11:26.196Z,32.53
2018-04-30T05:14:29.511Z,32.23
2018-04-30T05:17:32.817Z,31.10
2018-04-30T05:20:36.130Z,34.63
2018-04-30T05:23:39.445Z,32.23
2018-04-30T05:26:43.521Z,34.47
2018-04-30T05:29:46.858Z,35.17
2018-04-30T05:32:50.942Z,35.73
2018-04-30T05:35:54.265Z,37.63
2018-04-30T05:38:58.340Z,38.90
2018-04-30T05:42:01.677Z,44.27
2018-04-30T05:45:05.750Z,43.97
2018-04-30T05:48:09.168Z,42.70
2018-04-30T05:51:13.161Z,38.53
2018-04-30T05:54:16.485Z,42.63
2018-04-30T05:57:19.785Z,39.73
2018-04-30T06:00:23.106Z,44.87
2018-04-30T06:03:27.174Z,42.93
2018-04-30T06:06:30.498Z,47.40
2018-04-30T06:09:33.799Z,43.80
2018-04-30T06:12:37.128Z,40.80
2018-04-30T06:15:40.430Z,38.47
2018-04-30T06:18:43.756Z,38.63
2018-04-30T06:21:47.060Z,38.70
2018-04-30T06:24:52.008Z,39.47
2018-04-30T06:27:56.109Z,36.63
2018-04-30T06:30:59.446Z,40.97
2018-04-30T06:34:03.517Z,41.30
2018-04-30T06:37:06.833Z,39.40
2018-04-30T06:40:11.086Z,30.60
2018-04-30T06:43:14.393Z,34.67
2018-04-30T06:46:17.708Z,36.33
2018-04-30T06:49:21.009Z,35.50
2018-04-30T06:52:24.352Z,41.07
2018-04-30T06:55:28.422Z,37.00
2018-04-30T06:58:31.773Z,37.17
2018-04-30T07:01:35.844Z,37.80
2018-04-30T07:04:39.161Z,40.97
2018-04-30T07:07:43.249Z,39.13
2018-04-30T07:10:46.562Z,39.27
2018-04-30T07:13:49.881Z,39.50
2018-04-30T07:16:53.963Z,38.83
2018-04-30T07:19:57.342Z,38.60
2018-04-30T07:23:01.370Z,41.27
2018-04-30T07:26:04.697Z,33.53
2018-04-30T07:29:08.005Z,32.07
2018-04-30T07:32:12.101Z,38.40
2018-04-30T07:35:15.415Z,39.67
2018-04-30T07:38:19.497Z,38.20
2018-04-30T07:41:22.818Z,39.80
2018-04-30T07:44:26.128Z,41.83
2018-04-30T07:47:30.205Z,56.63
2018-04-30T07:50:33.505Z,45.70
2018-04-30T07:53:36.820Z,41.83
2018-04-30T07:56:40.888Z,44.13
2018-04-30T07:59:44.229Z,41.97
2018-04-30T08:02:47.537Z,47.57
2018-04-30T08:05:51.618Z,47.53
2018-04-30T08:08:54.929Z,51.47
2018-04-30T08:11:58.248Z,46.47
2018-04-30T08:15:02.314Z,44.77
2018-04-30T08:18:05.649Z,43.37
2018-04-30T08:21:09.717Z,41.17
2018-04-30T08:24:13.040Z,45.77
2018-04-30T08:27:16.345Z,45.60
2018-04-30T08:30:19.665Z,48.17
2018-04-30T08:33:23.733Z,51.97
2018-04-30T08:36:27.046Z,42.90
2018-04-30T08:39:30.351Z,54.37
2018-04-30T08:42:33.677Z,45.43
2018-04-30T08:45:36.988Z,51.37
2018-04-30T08:48:40.308Z,45.80
2018-04-30T08:51:43.609Z,55.00
2018-04-30T08:54:46.934Z,53.90
2018-04-30T08:57:50.237Z,63.60
2018-04-30T09:00:53.560Z,54.53
2018-04-30T09:03:56.868Z,46.03
2018-04-30T09:07:00.203Z,45.53
2018-04-30T09:10:03.505Z,48.60
2018-04-30T09:13:06.841Z,45.83
2018-04-30T09:16:10.145Z,45.13
2018-04-30T09:19:13.468Z,49.47
2018-04-30T09:22:17.874Z,40.30
2018-04-30T09:25:21.202Z,48.17
2018-04-30T09:28:24.502Z,46.23
2018-04-30T09:31:27.834Z,40.83
2018-04-30T09:34:31.902Z,45.83
2018-04-30T09:37:35.229Z,49.10
2018-04-30T09:40:38.537Z,45.73
2018-04-30T09:43:42.625Z,51.87
2018-04-30T09:46:45.937Z,46.13
2018-04-30T09:49:49.277Z,44.63
2018-04-30T09:52:52.584Z,45.27
2018-04-30T09:55:55.918Z,46.43
2018-04-30T09:58:59.217Z,51.67
2018-04-30T10:02:02.546Z,42.00
2018-04-30T10:05:06.613Z,40.37
2018-04-30T10:08:09.959Z,36.63
2018-04-30T10:11:13.265Z,40.80
2018-04-30T10:14:16.584Z,37.47
2018-04-30T10:17:19.890Z,45.57
2018-04-30T10:20:23.210Z,36.23
2018-04-30T10:23:26.610Z,37.53
2018-04-30T10:26:30.606Z,33.53
2018-04-30T10:29:33.931Z,31.87
2018-04-30T10:32:38.013Z,30.90
2018-04-30T10:35:41.352Z,33.93
2018-04-30T10:38:45.420Z,35.73
2018-04-30T10:41:48.758Z,39.60
2018-04-30T10:44:52.825Z,35.50
2018-04-30T10:47:56.145Z,35.43
2018-04-30T10:50:59.470Z,30.03
2018-04-30T10:54:03.541Z,35.23
2018-04-30T10:57:06.867Z,33.37
2018-04-30T11:00:10.173Z,36.57
2018-04-30T11:03:14.250Z,28.23
2018-04-30T11:06:17.573Z,33.77
2018-04-30T11:09:20.893Z,35.30
2018-04-30T11:12:24.227Z,28.83
2018-04-30T11:15:27.541Z,33.57
2018-04-30T11:18:30.869Z,32.63
2018-04-30T11:21:34.940Z,34.10
2018-04-30T11:24:38.276Z,35.00
2018-04-30T11:27:41.684Z,32.93
2018-04-30T11:30:44.949Z,30.77
2018-04-30T11:33:48.257Z,30.90
2018-04-30T11:36:52.361Z,29.70
2018-04-30T11:39:56.068Z,29.47
2018-04-30T11:42:59.411Z,28.10
2018-04-30T11:46:02.742Z,25.10
2018-04-30T11:49:06.093Z,26.87
2018-04-30T11:52:14.577Z,31.23
2018-04-30T11:55:18.025Z,30.60
2018-04-30T11:58:21.340Z,26.63
2018-04-30T12:01:24.685Z,26.70
2018-04-30T12:04:28.776Z,28.07
2018-04-30T12:07:32.103Z,26.43
2018-04-30T12:10:36.189Z,23.50
2018-04-30T12:13:39.546Z,24.83
2018-04-30T12:16:42.873Z,27.37
2018-04-30T12:19:51.773Z,28.10
2018-04-30T12:23:00.470Z,23.63
2018-04-30T12:26:06.221Z,28.23
2018-04-30T12:29:12.448Z,24.57
2018-04-30T12:32:15.961Z,29.57
2018-04-30T12:35:19.279Z,24.67
2018-04-30T12:38:23.390Z,23.03
2018-04-30T12:41:32.465Z,26.10
2018-04-30T12:44:36.614Z,28.10
2018-04-30T12:47:39.937Z,27.30
2018-04-30T12:50:44.077Z,30.13
2018-04-30T12:53:47.349Z,27.27
2018-04-30T12:56:51.466Z,27.37
2018-04-30T12:59:55.553Z,25.30
2018-04-30T13:02:58.885Z,30.73
2018-04-30T13:06:02.205Z,33.73
2018-04-30T13:09:06.274Z,30.80
2018-04-30T13:12:09.585Z,27.93
2018-04-30T13:15:12.905Z,34.00
2018-04-30T13:18:16.237Z,36.10
2018-04-30T13:21:19.546Z,34.67
2018-04-30T13:24:22.869Z,34.33
2018-04-30T13:27:26.169Z,31.93
2018-04-30T13:30:30.265Z,34.57
2018-04-30T13:33:33.569Z,33.33
2018-04-30T13:36:36.894Z,38.30
2018-04-30T13:39:40.197Z,40.90
2018-04-30T13:42:43.529Z,38.87
2018-04-30T13:45:46.829Z,39.90
2018-04-30T13:48:50.154Z,41.57
2018-04-30T13:51:53.458Z,39.30
2018-04-30T13:54:57.573Z,40.13
2018-04-30T13:58:01.647Z,47.60
2018-04-30T14:01:04.965Z,33.60
2018-04-30T14:04:08.271Z,41.07
2018-04-30T14:07:11.614Z,47.43
2018-04-30T14:10:14.913Z,42.33
2018-04-30T14:13:18.229Z,44.50
2018-04-30T14:16:21.537Z,45.67
2018-04-30T14:19:24.857Z,52.03
2018-04-30T14:22:28.158Z,44.17
2018-04-30T14:25:32.236Z,48.70
2018-04-30T14:28:35.553Z,41.57
2018-04-30T14:31:38.899Z,42.73
2018-04-30T14:34:42.194Z,40.60
2018-04-30T14:37:45.519Z,39.77
2018-04-30T14:40:48.829Z,32.53
2018-04-30T14:43:52.150Z,37.30
2018-04-30T14:46:56.213Z,33.03
2018-04-30T14:50:00.307Z,36.27
2018-04-30T14:53:03.619Z,70.37
2018-04-30T14:56:06.930Z,71.23
2018-04-30T14:59:10.236Z,91.80
2018-04-30T15:02:13.571Z,32.43
2018-04-30T15:05:17.642Z,20.63
2018-04-30T15:08:20.958Z,48.17
2018-04-30T15:11:24.266Z,18.33
2018-04-30T15:14:27.579Z,28.00
2018-04-30T15:17:31.660Z,19.40
2018-04-30T15:20:34.969Z,12.33
2018-04-30T15:23:38.293Z,13.97
2018-04-30T15:26:42.361Z,14.07
2018-04-30T15:29:45.695Z,17.03
2018-04-30T15:32:49.773Z,15.33
2018-04-30T15:35:53.130Z,15.63
2018-04-30T15:38:56.429Z,12.67
2018-04-30T15:41:59.784Z,17.10
2018-04-30T15:45:03.151Z,19.43
2018-04-30T15:48:06.488Z,15.10
2018-04-30T15:51:10.568Z,16.57
2018-04-30T15:54:13.902Z,16.67
2018-04-30T15:57:17.972Z,11.83
2018-04-30T16:00:21.293Z,12.73
2018-04-30T16:03:24.604Z,17.43
2018-04-30T16:06:27.937Z,11.27
2018-04-30T16:09:31.241Z,13.10
2018-04-30T16:12:34.583Z,11.63
2018-04-30T16:15:37.887Z,10.77
2018-04-30T16:18:41.209Z,8.63
2018-04-30T16:21:44.513Z,10.63
2018-04-30T16:24:47.841Z,10.13
2018-04-30T16:27:51.146Z,8.80
2018-04-30T16:30:54.464Z,8.40
2018-04-30T16:33:57.760Z,9.07
2018-04-30T16:37:01.076Z,69.73
2018-04-30T16:40:05.141Z,12.23
2018-04-30T16:43:08.453Z,7.93
2018-04-30T16:46:11.745Z,7.40
2018-04-30T16:49:15.058Z,7.47
2018-04-30T16:52:18.356Z,6.43
2018-04-30T16:55:21.693Z,8.83
2018-04-30T16:58:25.014Z,10.50
2018-04-30T17:01:28.309Z,8.30
2018-04-30T17:04:31.627Z,7.50
2018-04-30T17:07:35.003Z,8.60
2018-04-30T17:10:38.363Z,7.60
2018-04-30T17:13:42.413Z,5.83
2018-04-30T17:16:45.728Z,4.03
2018-04-30T17:19:49.030Z,3.03
2018-04-30T17:22:52.340Z,3.40
2018-04-30T17:25:55.673Z,2.93
2018-04-30T17:28:58.986Z,3.60
2018-04-30T17:32:02.309Z,4.13
2018-04-30T17:35:05.614Z,4.00
2018-04-30T17:38:09.242Z,3.13
2018-04-30T17:41:13.343Z,3.23
2018-04-30T17:44:16.675Z,3.77
2018-04-30T17:47:19.970Z,3.30
2018-04-30T17:50:23.285Z,3.47
2018-04-30T17:53:26.597Z,4.03
2018-04-30T17:56:29.929Z,4.03
2018-04-30T17:59:33.237Z,5.50
2018-04-30T18:02:36.565Z,4.43
2018-04-30T18:05:39.875Z,4.40
2018-04-30T18:08:43.214Z,4.80
2018-04-30T18:11:46.659Z,5.57
2018-04-30T18:14:49.990Z,5.50
2018-04-30T18:17:53.321Z,5.13
2018-04-30T18:20:56.636Z,6.63
2018-04-30T18:23:59.987Z,8.17
2018-04-30T18:27:03.306Z,5.83
2018-04-30T18:30:07.406Z,6.37
2018-04-30T18:33:10.746Z,7.10
2018-04-30T18:36:14.839Z,8.47
2018-04-30T18:39:18.918Z,8.80
2018-04-30T18:42:22.234Z,7.57
2018-04-30T18:45:25.599Z,8.63
2018-04-30T18:48:28.885Z,8.50
2018-04-30T18:51:32.194Z,8.30
2018-04-30T18:54:35.513Z,8.53
2018-04-30T18:57:38.816Z,8.60
2018-04-30T19:00:42.125Z,8.23
2018-04-30T19:03:46.190Z,8.77
2018-04-30T19:06:49.521Z,8.27
2018-04-30T19:09:52.827Z,9.60
2018-04-30T19:12:56.921Z,8.87
2018-04-30T19:16:00.221Z,7.97
2018-04-30T19:19:03.541Z,6.83
2018-04-30T19:22:07.608Z,6.70
2018-04-30T19:25:10.917Z,6.27
2018-04-30T19:28:14.212Z,6.20
2018-04-30T19:31:17.526Z,5.50
2018-04-30T19:34:20.825Z,6.13
2018-04-30T19:37:24.154Z,7.37
2018-04-30T19:40:27.458Z,7.53
2018-04-30T19:43:30.781Z,8.97
2018-04-30T19:46:34.077Z,8.80
2018-04-30T19:49:37.458Z,8.70
2018-04-30T19:52:40.763Z,10.43
2018-04-30T19:55:44.073Z,9.93
2018-04-30T19:58:47.412Z,11.33
2018-04-30T20:01:50.719Z,11.30
2018-04-30T20:04:54.784Z,13.30
2018-04-30T20:07:58.094Z,11.80
2018-04-30T20:11:01.422Z,16.43
2018-04-30T20:14:04.728Z,16.27
2018-04-30T20:17:08.817Z,16.60
2018-04-30T20:20:12.126Z,15.70
2018-04-30T20:23:16.221Z,17.33
2018-04-30T20:26:19.535Z,15.57
2018-04-30T20:29:22.865Z,17.63
2018-04-30T20:32:26.160Z,17.83
2018-04-30T20:35:29.481Z,18.60
2018-04-30T20:38:32.785Z,21.03
2018-04-30T20:41:36.106Z,20.03
2018-04-30T20:44:39.413Z,17.37
2018-04-30T20:47:42.733Z,18.63
2018-04-30T20:50:46.037Z,20.20
2018-04-30T20:53:49.360Z,21.40
2018-04-30T20:56:52.666Z,24.80
2018-04-30T20:59:55.990Z,23.17
2018-04-30T21:02:59.297Z,20.30
2018-04-30T21:06:03.373Z,21.47
2018-04-30T21:09:13.190Z,19.67
2018-04-30T21:12:16.501Z,20.10
2018-04-30T21:15:19.813Z,17.87
2018-04-30T21:18:23.125Z,16.33
2018-04-30T21:21:26.433Z,20.70
2018-04-30T21:24:29.809Z,15.80
2018-04-30T21:27:33.841Z,16.37
2018-04-30T21:30:37.170Z,15.67
2018-04-30T21:33:40.478Z,16.47
2018-04-30T21:36:43.794Z,14.40
2018-04-30T21:39:47.102Z,13.17
2018-04-30T21:42:50.422Z,13.07
2018-04-30T21:45:53.710Z,13.10
2018-04-30T21:48:57.033Z,14.97
2018-04-30T21:52:01.099Z,12.33
2018-04-30T21:55:04.414Z,10.70
2018-04-30T21:58:07.932Z,14.30
2018-04-30T22:01:11.241Z,11.87
2018-04-30T22:04:15.306Z,12.57
2018-04-30T22:07:18.612Z,14.37
2018-04-30T22:10:21.933Z,10.13
2018-04-30T22:13:25.224Z,9.97
2018-04-30T22:16:28.528Z,9.63
2018-04-30T22:19:31.816Z,11.73
2018-04-30T22:22:35.149Z,11.13
2018-04-30T22:25:38.441Z,9.67
2018-04-30T22:28:42.505Z,11.27
2018-04-30T22:31:45.824Z,8.50
2018-04-30T22:34:49.108Z,9.17
2018-04-30T22:37:52.426Z,9.73
2018-04-30T22:40:56.476Z,8.00
2018-04-30T22:43:59.789Z,10.10
2018-04-30T22:47:03.087Z,7.27
2018-04-30T22:50:06.386Z,7.37
2018-04-30T22:53:09.681Z,7.37
2018-04-30T22:56:12.985Z,7.87
2018-04-30T22:59:16.293Z,6.53
2018-04-30T23:02:19.589Z,6.43
2018-04-30T23:05:22.912Z,5.47
2018-04-30T23:08:26.205Z,5.27
2018-04-30T23:11:30.280Z,5.40
2018-04-30T23:14:33.575Z,7.00
2018-04-30T23:17:36.881Z,6.60
2018-04-30T23:20:40.164Z,5.17
2018-04-30T23:23:43.477Z,6.33
2018-04-30T23:26:46.765Z,5.47
2018-04-30T23:29:50.085Z,8.07
2018-04-30T23:32:53.373Z,6.47
2018-04-30T23:35:56.685Z,5.70
2018-04-30T23:39:00.002Z,4.43
2018-04-30T23:42:03.297Z,5.90
2018-04-30T23:45:07.370Z,4.33
2018-04-30T23:48:10.657Z,7.73
2018-04-30T23:51:13.976Z,4.60
2018-04-30T23:54:17.260Z,4.30
2018-04-30T23:57:20.572Z,4.03
